sensor_id;sensor_type;location;lat;lon;timestamp;pressure;altitude;pressure_sealevel;temperature;humidity
13581;BME280;6861;46.170;7.222;2023-05-12T00:02:11;95540.94;;;15.20;49.78
13581;BME280;6861;46.170;7.222;2023-05-12T00:04:41;95531.00;;;15.17;49.90
13581;BME280;6861;46.170;7.222;2023-05-12T00:07:09;95526.50;;;15.17;50.09
13581;BME280;6861;46.170;7.222;2023-05-12T00:09:38;95535.19;;;15.18;49.68
13581;BME280;6861;46.170;7.222;2023-05-12T00:12:07;95533.31;;;15.18;49.87
13581;BME280;6861;46.170;7.222;2023-05-12T00:14:36;95531.78;;;15.17;49.87
13581;BME280;6861;46.170;7.222;2023-05-12T00:17:05;95524.16;;;15.16;50.11
13581;BME280;6861;46.170;7.222;2023-05-12T00:19:33;95521.84;;;15.14;50.42
13581;BME280;6861;46.170;7.222;2023-05-12T00:22:03;95516.41;;;15.11;50.50
13581;BME280;6861;46.170;7.222;2023-05-12T00:24:32;95517.00;;;15.07;50.39
13581;BME280;6861;46.170;7.222;2023-05-12T00:27:00;95512.00;;;14.97;50.75
13581;BME280;6861;46.170;7.222;2023-05-12T00:29:28;95515.53;;;14.93;50.36
13581;BME280;6861;46.170;7.222;2023-05-12T00:31:56;95510.88;;;14.90;50.77
13581;BME280;6861;46.170;7.222;2023-05-12T00:34:26;95510.09;;;14.89;51.15
13581;BME280;6861;46.170;7.222;2023-05-12T00:36:54;95506.50;;;14.85;50.69
13581;BME280;6861;46.170;7.222;2023-05-12T00:39:24;95507.59;;;14.84;51.60
13581;BME280;6861;46.170;7.222;2023-05-12T00:41:54;95509.13;;;14.85;51.65
13581;BME280;6861;46.170;7.222;2023-05-12T00:44:23;95504.94;;;14.84;51.10
13581;BME280;6861;46.170;7.222;2023-05-12T00:46:51;95504.94;;;14.84;51.39
13581;BME280;6861;46.170;7.222;2023-05-12T00:49:20;95516.56;;;14.83;51.46
13581;BME280;6861;46.170;7.222;2023-05-12T00:51:48;95510.34;;;14.79;51.86
13581;BME280;6861;46.170;7.222;2023-05-12T00:54:17;95513.59;;;14.76;51.72
13581;BME280;6861;46.170;7.222;2023-05-12T00:56:46;95518.38;;;14.74;51.88
13581;BME280;6861;46.170;7.222;2023-05-12T00:59:14;95510.81;;;14.72;52.21
13581;BME280;6861;46.170;7.222;2023-05-12T01:01:43;95519.78;;;14.71;51.64
13581;BME280;6861;46.170;7.222;2023-05-12T01:04:12;95513.09;;;14.74;51.63
13581;BME280;6861;46.170;7.222;2023-05-12T01:06:44;95519.31;;;14.78;52.04
13581;BME280;6861;46.170;7.222;2023-05-12T01:09:15;95518.22;;;14.70;51.97
13581;BME280;6861;46.170;7.222;2023-05-12T01:11:44;95518.34;;;14.65;52.56
13581;BME280;6861;46.170;7.222;2023-05-12T01:14:13;95523.16;;;14.63;52.40
13581;BME280;6861;46.170;7.222;2023-05-12T01:16:47;95519.72;;;14.63;52.44
13581;BME280;6861;46.170;7.222;2023-05-12T01:19:26;95524.69;;;14.64;52.82
13581;BME280;6861;46.170;7.222;2023-05-12T01:21:57;95533.84;;;14.67;52.26
13581;BME280;6861;46.170;7.222;2023-05-12T01:24:28;95529.38;;;14.67;52.75
13581;BME280;6861;46.170;7.222;2023-05-12T01:26:59;95529.38;;;14.67;52.88
13581;BME280;6861;46.170;7.222;2023-05-12T01:29:28;95522.25;;;14.68;52.81
13581;BME280;6861;46.170;7.222;2023-05-12T01:31:56;95523.78;;;14.69;52.71
13581;BME280;6861;46.170;7.222;2023-05-12T01:34:25;95530.63;;;14.70;52.74
13581;BME280;6861;46.170;7.222;2023-05-12T01:36:53;95525.34;;;14.70;52.40
13581;BME280;6861;46.170;7.222;2023-05-12T01:39:21;95527.22;;;14.69;52.83
13581;BME280;6861;46.170;7.222;2023-05-12T01:41:49;95527.81;;;14.66;52.83
13581;BME280;6861;46.170;7.222;2023-05-12T01:44:19;95523.91;;;14.64;52.50
13581;BME280;6861;46.170;7.222;2023-05-12T01:46:47;95525.47;;;14.65;53.05
13581;BME280;6861;46.170;7.222;2023-05-12T01:49:16;95532.28;;;14.66;53.40
13581;BME280;6861;46.170;7.222;2023-05-12T01:51:44;95530.75;;;14.65;53.45
13581;BME280;6861;46.170;7.222;2023-05-12T01:54:12;95528.84;;;14.57;53.66
13581;BME280;6861;46.170;7.222;2023-05-12T01:56:40;95524.75;;;14.51;53.27
13581;BME280;6861;46.170;7.222;2023-05-12T01:59:08;95530.81;;;14.51;53.64
13581;BME280;6861;46.170;7.222;2023-05-12T02:01:38;95533.75;;;14.50;53.80
13581;BME280;6861;46.170;7.222;2023-05-12T02:04:06;95529.38;;;14.45;53.78
13581;BME280;6861;46.170;7.222;2023-05-12T02:06:35;95527.69;;;14.49;53.39
13581;BME280;6861;46.170;7.222;2023-05-12T02:09:03;95524.75;;;14.51;53.44
13581;BME280;6861;46.170;7.222;2023-05-12T02:11:32;95526.44;;;14.47;53.32
13581;BME280;6861;46.170;7.222;2023-05-12T02:14:00;95525.75;;;14.41;53.62
13581;BME280;6861;46.170;7.222;2023-05-12T02:16:28;95530.16;;;14.46;53.58
13581;BME280;6861;46.170;7.222;2023-05-12T02:18:58;95528.47;;;14.50;53.25
13581;BME280;6861;46.170;7.222;2023-05-12T02:21:26;95522.00;;;14.56;53.12
13581;BME280;6861;46.170;7.222;2023-05-12T02:23:54;95529.00;;;14.60;52.81
13581;BME280;6861;46.170;7.222;2023-05-12T02:26:23;95526.06;;;14.62;53.22
13581;BME280;6861;46.170;7.222;2023-05-12T02:28:51;95533.06;;;14.66;52.73
13581;BME280;6861;46.170;7.222;2023-05-12T02:31:19;95529.84;;;14.69;53.09
13581;BME280;6861;46.170;7.222;2023-05-12T02:33:47;95534.63;;;14.67;53.08
13581;BME280;6861;46.170;7.222;2023-05-12T02:36:18;95535.09;;;14.69;53.14
13581;BME280;6861;46.170;7.222;2023-05-12T02:38:46;95529.53;;;14.71;52.75
13581;BME280;6861;46.170;7.222;2023-05-12T02:41:15;95530.91;;;14.68;52.83
13581;BME280;6861;46.170;7.222;2023-05-12T02:43:43;95529.31;;;14.59;53.36
13581;BME280;6861;46.170;7.222;2023-05-12T02:46:11;95525.25;;;14.53;53.61
13581;BME280;6861;46.170;7.222;2023-05-12T02:48:39;95530.50;;;14.53;53.60
13581;BME280;6861;46.170;7.222;2023-05-12T02:51:07;95528.84;;;14.57;53.96
13581;BME280;6861;46.170;7.222;2023-05-12T02:53:37;95525.13;;;14.58;53.53
13581;BME280;6861;46.170;7.222;2023-05-12T02:56:06;95527.75;;;14.58;53.22
13581;BME280;6861;46.170;7.222;2023-05-12T02:58:34;95527.28;;;14.56;53.88
13581;BME280;6861;46.170;7.222;2023-05-12T03:01:02;95527.56;;;14.54;53.49
13581;BME280;6861;46.170;7.222;2023-05-12T03:03:36;95525.34;;;14.48;53.88
13581;BME280;6861;46.170;7.222;2023-05-12T03:06:05;95520.88;;;14.48;53.49
13581;BME280;6861;46.170;7.222;2023-05-12T03:08:34;95522.44;;;14.49;53.29
13581;BME280;6861;46.170;7.222;2023-05-12T03:11:04;95523.09;;;14.55;53.27
13581;BME280;6861;46.170;7.222;2023-05-12T03:13:32;95528.84;;;14.57;53.65
13581;BME280;6861;46.170;7.222;2023-05-12T03:16:00;95525.91;;;14.58;53.56
13581;BME280;6861;46.170;7.222;2023-05-12T03:18:28;95521.41;;;14.59;53.71
13581;BME280;6861;46.170;7.222;2023-05-12T03:20:57;95528.22;;;14.60;53.48
13581;BME280;6861;46.170;7.222;2023-05-12T03:23:25;95531.94;;;14.59;53.89
13581;BME280;6861;46.170;7.222;2023-05-12T03:25:53;95524.34;;;14.57;53.91
13581;BME280;6861;46.170;7.222;2023-05-12T03:28:23;95526.69;;;14.59;53.60
13581;BME280;6861;46.170;7.222;2023-05-12T03:30:52;95517.34;;;14.53;53.66
13581;BME280;6861;46.170;7.222;2023-05-12T03:33:20;95519.63;;;14.46;54.06
13581;BME280;6861;46.170;7.222;2023-05-12T03:35:49;95522.34;;;14.40;53.83
13581;BME280;6861;46.170;7.222;2023-05-12T03:38:17;95527.72;;;14.35;54.78
13581;BME280;6861;46.170;7.222;2023-05-12T03:40:45;95529.69;;;14.30;54.63
13581;BME280;6861;46.170;7.222;2023-05-12T03:43:18;95518.69;;;14.28;54.27
13581;BME280;6861;46.170;7.222;2023-05-12T03:45:48;95516.66;;;14.25;54.44
13581;BME280;6861;46.170;7.222;2023-05-12T03:48:16;95525.44;;;14.20;54.92
13581;BME280;6861;46.170;7.222;2023-05-12T03:50:44;95522.44;;;14.13;54.87
13581;BME280;6861;46.170;7.222;2023-05-12T03:53:13;95520.22;;;14.06;54.53
13581;BME280;6861;46.170;7.222;2023-05-12T03:55:42;95519.53;;;14.01;55.32
13581;BME280;6861;46.170;7.222;2023-05-12T03:58:10;95520.13;;;13.98;54.59
13581;BME280;6861;46.170;7.222;2023-05-12T04:00:38;95524.91;;;13.96;55.98
13581;BME280;6861;46.170;7.222;2023-05-12T04:03:08;95522.97;;;14.01;55.34
13581;BME280;6861;46.170;7.222;2023-05-12T04:05:36;95515.25;;;14.05;54.97
13581;BME280;6861;46.170;7.222;2023-05-12T04:08:05;95514.94;;;14.06;55.56
13581;BME280;6861;46.170;7.222;2023-05-12T04:10:37;95521.00;;;14.07;55.17
13581;BME280;6861;46.170;7.222;2023-05-12T04:13:05;95522.56;;;14.08;55.17
13581;BME280;6861;46.170;7.222;2023-05-12T04:15:34;95521.59;;;14.04;55.02
13581;BME280;6861;46.170;7.222;2023-05-12T04:18:02;95516.31;;;14.04;55.07
13581;BME280;6861;46.170;7.222;2023-05-12T04:20:32;95515.72;;;14.07;55.02
13581;BME280;6861;46.170;7.222;2023-05-12T04:23:00;95521.00;;;14.07;55.06
13581;BME280;6861;46.170;7.222;2023-05-12T04:25:28;95523.16;;;14.05;55.15
13581;BME280;6861;46.170;7.222;2023-05-12T04:27:56;95517.41;;;14.03;55.53
13581;BME280;6861;46.170;7.222;2023-05-12T04:30:24;95521.09;;;14.02;55.50
13581;BME280;6861;46.170;7.222;2023-05-12T04:32:52;95518.19;;;14.03;56.10
13581;BME280;6861;46.170;7.222;2023-05-12T04:35:21;95517.69;;;14.01;55.87
13581;BME280;6861;46.170;7.222;2023-05-12T04:37:50;95527.91;;;14.03;55.71
13581;BME280;6861;46.170;7.222;2023-05-12T04:40:19;95523.63;;;14.07;55.74
13581;BME280;6861;46.170;7.222;2023-05-12T04:42:47;95531.09;;;14.14;55.60
13581;BME280;6861;46.170;7.222;2023-05-12T04:45:16;95530.22;;;14.18;54.62
13581;BME280;6861;46.170;7.222;2023-05-12T04:47:44;95534.59;;;14.23;55.05
13581;BME280;6861;46.170;7.222;2023-05-12T04:50:12;95542.06;;;14.29;54.75
13581;BME280;6861;46.170;7.222;2023-05-12T04:52:41;95532.97;;;14.35;55.10
13581;BME280;6861;46.170;7.222;2023-05-12T04:55:11;95543.13;;;14.42;54.58
13581;BME280;6861;46.170;7.222;2023-05-12T04:57:39;95542.13;;;14.52;54.79
13581;BME280;6861;46.170;7.222;2023-05-12T05:00:08;95539.72;;;14.64;54.15
13581;BME280;6861;46.170;7.222;2023-05-12T05:02:36;95546.28;;;14.75;54.45
13581;BME280;6861;46.170;7.222;2023-05-12T05:05:05;95546.75;;;14.77;54.14
13581;BME280;6861;46.170;7.222;2023-05-12T05:07:34;95544.25;;;14.72;54.47
13581;BME280;6861;46.170;7.222;2023-05-12T05:10:02;95554.03;;;14.80;54.12
13581;BME280;6861;46.170;7.222;2023-05-12T05:12:33;95549.38;;;14.77;54.04
13581;BME280;6861;46.170;7.222;2023-05-12T05:15:01;95551.38;;;14.71;54.48
13581;BME280;6861;46.170;7.222;2023-05-12T05:17:29;95548.09;;;14.66;54.80
13581;BME280;6861;46.170;7.222;2023-05-12T05:19:57;95554.31;;;14.70;54.34
13581;BME280;6861;46.170;7.222;2023-05-12T05:22:26;95546.44;;;14.79;54.54
13581;BME280;6861;46.170;7.222;2023-05-12T05:24:54;95554.03;;;14.80;54.18
13581;BME280;6861;46.170;7.222;2023-05-12T05:27:22;95550.34;;;14.81;53.94
13581;BME280;6861;46.170;7.222;2023-05-12T05:29:52;95552.84;;;14.86;54.47
13581;BME280;6861;46.170;7.222;2023-05-12T05:32:20;95553.19;;;14.93;54.05
13581;BME280;6861;46.170;7.222;2023-05-12T05:34:48;95551.03;;;14.95;53.85
13581;BME280;6861;46.170;7.222;2023-05-12T05:37:16;95548.09;;;14.97;53.90
13581;BME280;6861;46.170;7.222;2023-05-12T05:39:45;95551.16;;;14.90;54.09
13581;BME280;6861;46.170;7.222;2023-05-12T05:42:13;95549.91;;;14.88;53.69
13581;BME280;6861;46.170;7.222;2023-05-12T05:44:41;95563.38;;;14.86;54.24
13581;BME280;6861;46.170;7.222;2023-05-12T05:47:11;95556.59;;;14.94;54.07
13581;BME280;6861;46.170;7.222;2023-05-12T05:49:39;95553.41;;;15.05;53.87
13581;BME280;6861;46.170;7.222;2023-05-12T05:52:07;95562.44;;;15.13;53.62
13581;BME280;6861;46.170;7.222;2023-05-12T05:54:36;95552.75;;;15.31;53.49
13581;BME280;6861;46.170;7.222;2023-05-12T05:57:04;95553.00;;;15.52;53.08
13581;BME280;6861;46.170;7.222;2023-05-12T05:59:32;95552.13;;;15.73;52.81
13581;BME280;6861;46.170;7.222;2023-05-12T06:02:00;95557.59;;;15.94;52.01
13581;BME280;6861;46.170;7.222;2023-05-12T06:04:31;95552.97;;;16.17;51.86
13581;BME280;6861;46.170;7.222;2023-05-12T06:06:59;95556.56;;;16.30;51.71
13581;BME280;6861;46.170;7.222;2023-05-12T06:09:27;95560.91;;;16.43;51.37
13581;BME280;6861;46.170;7.222;2023-05-12T06:11:55;95559.63;;;16.58;51.67
13581;BME280;6861;46.170;7.222;2023-05-12T06:14:23;95569.91;;;16.68;50.85
13581;BME280;6861;46.170;7.222;2023-05-12T06:16:51;95558.56;;;16.76;50.68
13581;BME280;6861;46.170;7.222;2023-05-12T06:19:20;95562.41;;;16.87;50.58
13581;BME280;6861;46.170;7.222;2023-05-12T06:21:49;95567.84;;;16.99;50.41
13581;BME280;6861;46.170;7.222;2023-05-12T06:24:19;95569.34;;;17.18;50.52
13581;BME280;6861;46.170;7.222;2023-05-12T06:26:47;95573.00;;;17.34;50.19
13581;BME280;6861;46.170;7.222;2023-05-12T06:29:15;95568.75;;;17.50;49.78
13581;BME280;6861;46.170;7.222;2023-05-12T06:31:43;95569.78;;;17.66;49.29
13581;BME280;6861;46.170;7.222;2023-05-12T06:34:12;95577.66;;;17.84;49.12
13581;BME280;6861;46.170;7.222;2023-05-12T06:36:40;95570.25;;;17.98;48.80
13581;BME280;6861;46.170;7.222;2023-05-12T06:39:10;95562.31;;;17.98;48.19
13581;BME280;6861;46.170;7.222;2023-05-12T06:41:39;95569.94;;;17.99;47.90
13581;BME280;6861;46.170;7.222;2023-05-12T06:44:07;95572.72;;;18.03;48.01
13581;BME280;6861;46.170;7.222;2023-05-12T06:46:38;95570.78;;;18.12;48.11
13581;BME280;6861;46.170;7.222;2023-05-12T06:49:06;95563.78;;;18.49;47.86
13581;BME280;6861;46.170;7.222;2023-05-12T06:51:35;95563.28;;;19.46;46.85
13581;BME280;6861;46.170;7.222;2023-05-12T06:54:03;95563.44;;;20.94;44.45
13581;BME280;6861;46.170;7.222;2023-05-12T06:56:33;95569.50;;;22.37;42.01
13581;BME280;6861;46.170;7.222;2023-05-12T06:59:01;95562.97;;;23.83;39.48
13581;BME280;6861;46.170;7.222;2023-05-12T07:01:31;95560.59;;;24.95;37.48
13581;BME280;6861;46.170;7.222;2023-05-12T07:03:59;95554.00;;;26.28;36.18
13581;BME280;6861;46.170;7.222;2023-05-12T07:06:28;95554.44;;;27.60;34.05
13581;BME280;6861;46.170;7.222;2023-05-12T07:08:57;95552.22;;;28.78;33.22
13581;BME280;6861;46.170;7.222;2023-05-12T07:11:25;95550.63;;;29.53;31.66
13581;BME280;6861;46.170;7.222;2023-05-12T07:13:55;95551.81;;;28.86;30.98
13581;BME280;6861;46.170;7.222;2023-05-12T07:16:23;95550.59;;;27.61;32.56
13581;BME280;6861;46.170;7.222;2023-05-12T07:18:51;95549.38;;;27.33;33.08
13581;BME280;6861;46.170;7.222;2023-05-12T07:21:20;95543.63;;;27.42;31.71
13581;BME280;6861;46.170;7.222;2023-05-12T07:23:48;95543.28;;;27.61;32.09
13581;BME280;6861;46.170;7.222;2023-05-12T07:26:16;95542.91;;;27.70;32.24
13581;BME280;6861;46.170;7.222;2023-05-12T07:28:45;95548.25;;;27.73;31.69
13581;BME280;6861;46.170;7.222;2023-05-12T07:31:14;95539.81;;;27.61;31.54
13581;BME280;6861;46.170;7.222;2023-05-12T07:33:43;95548.88;;;26.89;30.74
13581;BME280;6861;46.170;7.222;2023-05-12T07:36:11;95542.72;;;25.94;32.39
13581;BME280;6861;46.170;7.222;2023-05-12T07:38:39;95548.63;;;25.22;33.06
13581;BME280;6861;46.170;7.222;2023-05-12T07:41:08;95543.13;;;26.03;32.47
13581;BME280;6861;46.170;7.222;2023-05-12T07:43:36;95529.03;;;27.82;30.58
13581;BME280;6861;46.170;7.222;2023-05-12T07:46:04;95536.19;;;29.74;29.25
13581;BME280;6861;46.170;7.222;2023-05-12T07:48:33;95530.69;;;30.90;27.65
13581;BME280;6861;46.170;7.222;2023-05-12T07:51:06;95533.63;;;30.39;28.24
13581;BME280;6861;46.170;7.222;2023-05-12T07:53:34;95527.66;;;29.34;28.62
13581;BME280;6861;46.170;7.222;2023-05-12T07:56:03;95526.66;;;28.16;28.95
13581;BME280;6861;46.170;7.222;2023-05-12T07:58:33;95515.53;;;26.93;30.20
13581;BME280;6861;46.170;7.222;2023-05-12T08:01:02;95526.59;;;25.87;30.93
13581;BME280;6861;46.170;7.222;2023-05-12T08:03:34;95521.00;;;24.74;31.98
13581;BME280;6861;46.170;7.222;2023-05-12T08:06:02;95520.59;;;23.82;33.06
13581;BME280;6861;46.170;7.222;2023-05-12T08:08:32;95517.16;;;23.32;33.95
13581;BME280;6861;46.170;7.222;2023-05-12T08:11:00;95514.28;;;22.99;35.07
13581;BME280;6861;46.170;7.222;2023-05-12T08:13:28;95509.19;;;22.71;35.32
13581;BME280;6861;46.170;7.222;2023-05-12T08:15:56;95512.59;;;22.48;35.72
13581;BME280;6861;46.170;7.222;2023-05-12T08:18:24;95512.03;;;22.20;35.98
13581;BME280;6861;46.170;7.222;2023-05-12T08:20:54;95515.94;;;21.91;36.68
13581;BME280;6861;46.170;7.222;2023-05-12T08:23:22;95513.41;;;21.79;36.73
13581;BME280;6861;46.170;7.222;2023-05-12T08:25:51;95512.53;;;21.75;37.43
13581;BME280;6861;46.170;7.222;2023-05-12T08:28:20;95510.38;;;21.80;37.38
13581;BME280;6861;46.170;7.222;2023-05-12T08:30:48;95495.75;;;21.90;37.51
13581;BME280;6861;46.170;7.222;2023-05-12T08:33:16;95505.63;;;22.05;37.02
13581;BME280;6861;46.170;7.222;2023-05-12T08:35:45;95500.16;;;22.17;36.61
13581;BME280;6861;46.170;7.222;2023-05-12T08:38:14;95503.41;;;22.27;36.64
13581;BME280;6861;46.170;7.222;2023-05-12T08:40:46;95501.88;;;22.45;36.26
13581;BME280;6861;46.170;7.222;2023-05-12T08:43:22;95503.97;;;22.97;36.18
13581;BME280;6861;46.170;7.222;2023-05-12T08:45:52;95506.44;;;24.38;34.75
13581;BME280;6861;46.170;7.222;2023-05-12T08:48:25;95502.88;;;26.83;31.89
13581;BME280;6861;46.170;7.222;2023-05-12T08:50:54;95493.72;;;27.09;30.83
13581;BME280;6861;46.170;7.222;2023-05-12T08:53:26;95494.41;;;26.70;30.65
13581;BME280;6861;46.170;7.222;2023-05-12T08:55:57;95494.50;;;26.08;31.30
13581;BME280;6861;46.170;7.222;2023-05-12T08:58:47;95486.13;;;25.04;31.73
13581;BME280;6861;46.170;7.222;2023-05-12T09:01:16;95488.06;;;24.36;32.79
13581;BME280;6861;46.170;7.222;2023-05-12T09:03:45;95491.50;;;24.03;33.48
13581;BME280;6861;46.170;7.222;2023-05-12T09:06:13;95485.38;;;23.76;33.21
13581;BME280;6861;46.170;7.222;2023-05-12T09:08:44;95475.59;;;23.58;33.26
13581;BME280;6861;46.170;7.222;2023-05-12T09:11:12;95477.34;;;23.24;33.09
13581;BME280;6861;46.170;7.222;2023-05-12T09:13:47;95470.41;;;22.96;33.51
13581;BME280;6861;46.170;7.222;2023-05-12T09:16:24;95473.59;;;22.82;33.79
13581;BME280;6861;46.170;7.222;2023-05-12T09:18:53;95470.88;;;22.60;33.91
13581;BME280;6861;46.170;7.222;2023-05-12T09:21:23;95465.34;;;24.19;32.46
13581;BME280;6861;46.170;7.222;2023-05-12T09:23:54;95468.78;;;27.65;29.41
13581;BME280;6861;46.170;7.222;2023-05-12T09:26:23;95470.44;;;31.44;25.42
13581;BME280;6861;46.170;7.222;2023-05-12T09:28:53;95463.38;;;34.15;23.51
13581;BME280;6861;46.170;7.222;2023-05-12T09:31:22;95454.09;;;36.65;21.58
13581;BME280;6861;46.170;7.222;2023-05-12T09:33:51;95452.59;;;35.76;20.98
13581;BME280;6861;46.170;7.222;2023-05-12T09:36:21;95449.59;;;33.64;22.21
13581;BME280;6861;46.170;7.222;2023-05-12T09:39:01;95452.84;;;31.32;23.59
13581;BME280;6861;46.170;7.222;2023-05-12T09:41:34;95450.88;;;29.91;25.21
13581;BME280;6861;46.170;7.222;2023-05-12T09:44:03;95449.19;;;29.22;26.03
13581;BME280;6861;46.170;7.222;2023-05-12T09:46:31;95451.81;;;28.77;26.70
13581;BME280;6861;46.170;7.222;2023-05-12T09:49:00;95448.06;;;28.60;26.90
13581;BME280;6861;46.170;7.222;2023-05-12T09:51:29;95439.47;;;27.99;27.21
13581;BME280;6861;46.170;7.222;2023-05-12T09:53:59;95440.00;;;27.27;27.92
13581;BME280;6861;46.170;7.222;2023-05-12T09:56:29;95439.94;;;26.66;28.41
13581;BME280;6861;46.170;7.222;2023-05-12T09:58:58;95433.59;;;26.09;29.34
13581;BME280;6861;46.170;7.222;2023-05-12T10:01:29;95439.47;;;25.60;29.58
13581;BME280;6861;46.170;7.222;2023-05-12T10:03:58;95433.88;;;25.24;30.12
13581;BME280;6861;46.170;7.222;2023-05-12T10:06:29;95442.16;;;25.05;30.01
13581;BME280;6861;46.170;7.222;2023-05-12T10:09:04;95435.84;;;24.87;30.42
13581;BME280;6861;46.170;7.222;2023-05-12T10:11:34;95435.09;;;24.86;30.55
13581;BME280;6861;46.170;7.222;2023-05-12T10:14:02;95426.03;;;24.98;30.44
13581;BME280;6861;46.170;7.222;2023-05-12T10:16:32;95426.59;;;25.21;30.33
13581;BME280;6861;46.170;7.222;2023-05-12T10:19:01;95421.56;;;25.71;29.46
13581;BME280;6861;46.170;7.222;2023-05-12T10:21:30;95411.06;;;26.28;29.02
13581;BME280;6861;46.170;7.222;2023-05-12T10:24:02;95407.38;;;26.78;28.18
13581;BME280;6861;46.170;7.222;2023-05-12T10:26:31;95408.53;;;27.27;27.60
13581;BME280;6861;46.170;7.222;2023-05-12T10:28:59;95408.88;;;27.54;27.85
13581;BME280;6861;46.170;7.222;2023-05-12T10:31:28;95401.56;;;27.72;27.12
13581;BME280;6861;46.170;7.222;2023-05-12T10:33:57;95404.25;;;27.72;27.41
13581;BME280;6861;46.170;7.222;2023-05-12T10:36:26;95396.94;;;27.73;27.15
13581;BME280;6861;46.170;7.222;2023-05-12T10:38:55;95401.50;;;27.76;27.88
13581;BME280;6861;46.170;7.222;2023-05-12T10:41:33;95393.06;;;27.74;27.71
13581;BME280;6861;46.170;7.222;2023-05-12T10:44:01;95392.38;;;27.59;27.46
13581;BME280;6861;46.170;7.222;2023-05-12T10:46:30;95385.47;;;27.48;27.80
13581;BME280;6861;46.170;7.222;2023-05-12T10:48:59;95383.97;;;27.18;27.36
13581;BME280;6861;46.170;7.222;2023-05-12T10:51:30;95377.06;;;26.82;27.55
13581;BME280;6861;46.170;7.222;2023-05-12T10:53:59;95377.78;;;26.43;28.04
13581;BME280;6861;46.170;7.222;2023-05-12T10:56:39;95376.91;;;26.07;27.96
13581;BME280;6861;46.170;7.222;2023-05-12T10:59:11;95379.84;;;25.70;28.44
13581;BME280;6861;46.170;7.222;2023-05-12T11:01:41;95370.09;;;25.40;29.16
13581;BME280;6861;46.170;7.222;2023-05-12T11:04:12;95367.31;;;25.26;29.38
13581;BME280;6861;46.170;7.222;2023-05-12T11:06:43;95371.47;;;25.13;29.21
13581;BME280;6861;46.170;7.222;2023-05-12T11:09:13;95367.94;;;25.02;29.62
13581;BME280;6861;46.170;7.222;2023-05-12T11:11:44;95368.69;;;24.99;30.01
13581;BME280;6861;46.170;7.222;2023-05-12T11:14:15;95367.19;;;25.01;29.91
13581;BME280;6861;46.170;7.222;2023-05-12T11:16:44;95362.66;;;25.16;29.78
13581;BME280;6861;46.170;7.222;2023-05-12T11:19:12;95364.69;;;25.33;29.62
13581;BME280;6861;46.170;7.222;2023-05-12T11:21:41;95358.97;;;25.38;29.20
13581;BME280;6861;46.170;7.222;2023-05-12T11:24:09;95355.13;;;25.36;29.12
13581;BME280;6861;46.170;7.222;2023-05-12T11:26:40;95358.16;;;25.27;29.58
13581;BME280;6861;46.170;7.222;2023-05-12T11:29:10;95351.19;;;25.12;29.57
13581;BME280;6861;46.170;7.222;2023-05-12T11:31:38;95349.56;;;24.97;29.55
13581;BME280;6861;46.170;7.222;2023-05-12T11:34:07;95337.97;;;24.86;29.38
13581;BME280;6861;46.170;7.222;2023-05-12T11:36:42;95344.81;;;24.79;29.19
13581;BME280;6861;46.170;7.222;2023-05-12T11:39:15;95347.09;;;24.77;29.56
13581;BME280;6861;46.170;7.222;2023-05-12T11:41:44;95334.00;;;24.65;29.35
13581;BME280;6861;46.170;7.222;2023-05-12T11:44:15;95338.81;;;24.49;29.54
13581;BME280;6861;46.170;7.222;2023-05-12T11:46:54;95333.38;;;24.38;29.69
13581;BME280;6861;46.170;7.222;2023-05-12T11:49:22;95327.97;;;24.31;29.80
13581;BME280;6861;46.170;7.222;2023-05-12T11:51:51;95324.47;;;24.27;30.24
13581;BME280;6861;46.170;7.222;2023-05-12T11:54:21;95323.72;;;24.27;30.40
13581;BME280;6861;46.170;7.222;2023-05-12T11:56:50;95316.47;;;24.27;30.58
13581;BME280;6861;46.170;7.222;2023-05-12T11:59:28;95309.59;;;24.30;31.14
13581;BME280;6861;46.170;7.222;2023-05-12T12:01:58;95305.75;;;24.27;31.33
13581;BME280;6861;46.170;7.222;2023-05-12T12:04:33;95304.16;;;24.19;31.69
13581;BME280;6861;46.170;7.222;2023-05-12T12:07:02;95301.44;;;24.15;31.42
13581;BME280;6861;46.170;7.222;2023-05-12T12:09:32;95301.44;;;24.15;31.86
13581;BME280;6861;46.170;7.222;2023-05-12T12:12:02;95301.41;;;24.12;32.03
13581;BME280;6861;46.170;7.222;2023-05-12T12:14:33;95301.44;;;24.15;31.90
13581;BME280;6861;46.170;7.222;2023-05-12T12:17:02;95299.25;;;24.25;32.26
13581;BME280;6861;46.170;7.222;2023-05-12T12:19:31;95305.53;;;24.43;31.94
13581;BME280;6861;46.170;7.222;2023-05-12T12:21:59;95287.72;;;24.61;31.26
13581;BME280;6861;46.170;7.222;2023-05-12T12:24:27;95288.94;;;24.71;31.38
13581;BME280;6861;46.170;7.222;2023-05-12T12:26:55;95282.13;;;24.80;31.22
13581;BME280;6861;46.170;7.222;2023-05-12T12:29:23;95290.53;;;24.79;31.05
13581;BME280;6861;46.170;7.222;2023-05-12T12:31:55;95282.13;;;24.80;31.11
13581;BME280;6861;46.170;7.222;2023-05-12T12:34:23;95285.53;;;24.77;31.12
13581;BME280;6861;46.170;7.222;2023-05-12T12:36:51;95277.47;;;24.70;31.16
13581;BME280;6861;46.170;7.222;2023-05-12T12:39:19;95282.75;;;24.63;31.11
13581;BME280;6861;46.170;7.222;2023-05-12T12:41:48;95281.16;;;24.55;31.04
13581;BME280;6861;46.170;7.222;2023-05-12T12:44:17;95281.91;;;24.52;30.98
13581;BME280;6861;46.170;7.222;2023-05-12T12:46:45;95286.84;;;24.46;30.95
13581;BME280;6861;46.170;7.222;2023-05-12T12:49:15;95283.75;;;24.44;30.98
13581;BME280;6861;46.170;7.222;2023-05-12T12:51:43;95282.66;;;24.49;31.06
13581;BME280;6861;46.170;7.222;2023-05-12T12:54:13;95285.78;;;24.58;30.85
13581;BME280;6861;46.170;7.222;2023-05-12T12:56:41;95277.47;;;24.70;30.75
13581;BME280;6861;46.170;7.222;2023-05-12T12:59:10;95281.38;;;24.83;30.29
13581;BME280;6861;46.170;7.222;2023-05-12T13:01:38;95278.47;;;25.03;30.07
13581;BME280;6861;46.170;7.222;2023-05-12T13:04:06;95279.31;;;25.25;29.96
13581;BME280;6861;46.170;7.222;2023-05-12T13:06:36;95269.84;;;25.41;29.67
13581;BME280;6861;46.170;7.222;2023-05-12T13:09:04;95275.22;;;25.48;30.06
13581;BME280;6861;46.170;7.222;2023-05-12T13:11:33;95264.50;;;25.48;29.73
13581;BME280;6861;46.170;7.222;2023-05-12T13:14:01;95271.78;;;25.52;29.61
13581;BME280;6861;46.170;7.222;2023-05-12T13:16:30;95269.50;;;25.54;29.48
13581;BME280;6861;46.170;7.222;2023-05-12T13:18:58;95275.22;;;25.52;29.57
13581;BME280;6861;46.170;7.222;2023-05-12T13:21:26;95274.44;;;25.44;29.88